createdAt,value
2018-12-15T00:01:50.963Z,2.58
2018-12-15T00:04:18.484Z,2.54
2018-12-15T00:06:45.953Z,2.55
2018-12-15T00:09:13.408Z,2.55
2018-12-15T00:11:40.830Z,2.57
2018-12-15T00:14:08.262Z,2.58
2018-12-15T00:16:35.748Z,2.58
2018-12-15T00:19:03.243Z,2.59
2018-12-15T00:21:30.674Z,2.60
2018-12-15T00:23:58.143Z,2.59
2018-12-15T00:26:25.566Z,2.59
2018-12-15T00:28:53.015Z,2.61
2018-12-15T00:31:20.874Z,2.64
2018-12-15T00:33:48.368Z,2.66
2018-12-15T00:36:15.939Z,2.65
2018-12-15T00:38:43.367Z,2.65
2018-12-15T00:41:10.869Z,2.64
2018-12-15T00:43:38.411Z,2.64
2018-12-15T00:46:05.845Z,2.65
2018-12-15T00:48:33.275Z,2.64
2018-12-15T00:51:00.792Z,2.61
2018-12-15T00:53:28.332Z,2.59
2018-12-15T00:55:55.800Z,2.57
2018-12-15T00:58:27.438Z,2.56
2018-12-15T01:00:54.855Z,2.54
2018-12-15T01:03:22.299Z,2.55
2018-12-15T01:05:49.708Z,2.55
2018-12-15T01:08:17.125Z,2.55
2018-12-15T01:10:44.589Z,2.55
2018-12-15T01:13:12.108Z,2.55
2018-12-15T01:15:44.536Z,2.57
2018-12-15T01:18:13.044Z,2.57
2018-12-15T01:20:40.607Z,2.58
2018-12-15T01:23:08.073Z,2.59
2018-12-15T01:25:35.617Z,2.62
2018-12-15T01:28:03.189Z,2.62
2018-12-15T01:30:30.604Z,2.60
2018-12-15T01:32:58.204Z,2.58
2018-12-15T01:35:25.627Z,2.58
2018-12-15T01:37:53.053Z,2.59
2018-12-15T01:40:20.664Z,2.60
2018-12-15T01:42:48.078Z,2.60
2018-12-15T01:45:15.501Z,2.59
2018-12-15T01:47:42.938Z,2.58
2018-12-15T01:50:10.616Z,2.59
2018-12-15T01:52:38.064Z,2.63
2018-12-15T01:55:05.616Z,2.64
2018-12-15T01:57:33.067Z,2.64
2018-12-15T02:00:00.548Z,2.67
2018-12-15T02:02:27.989Z,2.66
2018-12-15T02:04:55.409Z,2.67
2018-12-15T02:07:22.821Z,2.69
2018-12-15T02:09:50.305Z,2.68
2018-12-15T02:12:17.735Z,2.68
2018-12-15T02:14:45.180Z,2.66
2018-12-15T02:17:12.625Z,2.65
2018-12-15T02:19:40.081Z,2.66
2018-12-15T02:22:07.560Z,2.66
2018-12-15T02:24:35.114Z,2.66
2018-12-15T02:27:02.657Z,2.65
2018-12-15T02:29:30.132Z,2.63
2018-12-15T02:31:57.576Z,2.63
2018-12-15T02:34:25.011Z,2.63
2018-12-15T02:36:52.439Z,2.62
2018-12-15T02:39:19.972Z,2.61
2018-12-15T02:41:47.619Z,2.58
2018-12-15T02:44:15.271Z,2.55
2018-12-15T02:46:42.745Z,2.55
2018-12-15T02:49:10.286Z,2.54
2018-12-15T02:51:37.722Z,2.54
2018-12-15T02:54:05.320Z,2.54
2018-12-15T02:56:32.763Z,2.58
2018-12-15T02:59:00.235Z,2.60
2018-12-15T03:01:27.678Z,2.59
2018-12-15T03:03:55.089Z,2.58
2018-12-15T03:06:22.701Z,2.60
2018-12-15T03:08:50.472Z,2.60
2018-12-15T03:11:17.919Z,2.59
2018-12-15T03:13:45.365Z,2.58
2018-12-15T03:16:12.923Z,2.57
2018-12-15T03:18:40.380Z,2.54
2018-12-15T03:21:07.845Z,2.55
2018-12-15T03:23:35.608Z,2.54
2018-12-15T03:26:03.173Z,2.57
2018-12-15T03:28:30.600Z,2.57
2018-12-15T03:30:58.082Z,2.57
2018-12-15T03:33:25.543Z,2.60
2018-12-15T03:35:52.957Z,2.62
2018-12-15T03:38:20.440Z,2.64
2018-12-15T03:40:47.864Z,2.65
2018-12-15T03:43:15.383Z,2.64
2018-12-15T03:45:42.813Z,2.64
2018-12-15T03:48:10.288Z,2.61
2018-12-15T03:50:37.738Z,2.58
2018-12-15T03:53:05.191Z,2.54
2018-12-15T03:55:32.657Z,2.53
2018-12-15T03:58:00.166Z,2.54
2018-12-15T04:00:27.636Z,2.58
2018-12-15T04:02:55.118Z,2.60
2018-12-15T04:05:22.578Z,2.60
2018-12-15T04:07:50.022Z,2.58
2018-12-15T04:10:17.498Z,2.57
2018-12-15T04:12:44.946Z,2.56
2018-12-15T04:15:12.359Z,2.56
2018-12-15T04:17:39.987Z,2.57
2018-12-15T04:20:07.521Z,2.55
2018-12-15T04:22:35.089Z,2.55
2018-12-15T04:25:02.497Z,2.53
2018-12-15T04:27:29.992Z,2.52
2018-12-15T04:29:57.445Z,2.54
2018-12-15T04:32:24.920Z,2.55
2018-12-15T04:34:52.475Z,2.54
2018-12-15T04:37:19.940Z,2.56
2018-12-15T04:39:47.367Z,2.56
2018-12-15T04:42:14.946Z,2.56
2018-12-15T04:44:42.353Z,2.54
2018-12-15T04:47:09.930Z,2.53
2018-12-15T04:49:37.433Z,2.55
2018-12-15T04:52:04.888Z,2.55
2018-12-15T04:54:32.333Z,2.54
2018-12-15T04:56:59.789Z,2.52
2018-12-15T04:59:27.241Z,2.52
2018-12-15T05:01:54.679Z,2.51
2018-12-15T05:04:22.127Z,2.53
2018-12-15T05:06:49.567Z,2.52
2018-12-15T05:09:17.084Z,2.54
2018-12-15T05:11:44.539Z,2.53
2018-12-15T05:14:11.961Z,2.54
2018-12-15T05:16:39.468Z,2.54
2018-12-15T05:19:07.020Z,2.54
2018-12-15T05:21:34.461Z,2.55
2018-12-15T05:24:01.928Z,2.54
2018-12-15T05:26:29.356Z,2.52
2018-12-15T05:28:56.770Z,2.51
2018-12-15T05:31:24.194Z,2.52
2018-12-15T05:33:51.623Z,2.54
2018-12-15T05:36:19.109Z,2.52
2018-12-15T05:38:46.572Z,2.52
2018-12-15T05:41:13.995Z,2.51
2018-12-15T05:43:41.475Z,2.51
2018-12-15T05:46:08.900Z,2.52
2018-12-15T05:48:36.513Z,2.49
2018-12-15T05:51:03.952Z,2.51
2018-12-15T05:53:31.368Z,2.52
2018-12-15T05:55:58.819Z,2.52
2018-12-15T05:58:26.230Z,2.55
2018-12-15T06:00:53.680Z,2.57
2018-12-15T06:03:21.108Z,2.55
2018-12-15T06:05:48.600Z,2.57
2018-12-15T06:08:16.039Z,2.61
2018-12-15T06:10:43.561Z,2.60
2018-12-15T06:13:11.075Z,2.60
2018-12-15T06:15:38.506Z,2.57
2018-12-15T06:18:05.972Z,2.58
2018-12-15T06:20:33.441Z,2.57
2018-12-15T06:23:00.885Z,2.54
2018-12-15T06:25:28.338Z,2.57
2018-12-15T06:27:55.812Z,2.56
2018-12-15T06:30:23.268Z,2.56
2018-12-15T06:32:50.726Z,2.56
2018-12-15T06:35:18.179Z,2.56
2018-12-15T06:37:45.616Z,2.57
2018-12-15T06:40:13.041Z,2.58
2018-12-15T06:42:40.461Z,2.57
2018-12-15T06:45:07.912Z,2.58
2018-12-15T06:47:35.348Z,2.59
2018-12-15T06:50:03.009Z,2.59
2018-12-15T06:52:30.468Z,2.59
2018-12-15T06:54:58.034Z,2.58
2018-12-15T06:57:25.500Z,2.56
2018-12-15T06:59:52.944Z,2.57
2018-12-15T07:02:20.527Z,2.60
2018-12-15T07:04:47.968Z,2.63
2018-12-15T07:07:15.392Z,2.65
2018-12-15T07:09:42.904Z,2.65
2018-12-15T07:12:10.339Z,2.63
2018-12-15T07:14:37.809Z,2.60
2018-12-15T07:17:05.260Z,2.57
2018-12-15T07:19:32.716Z,2.55
2018-12-15T07:22:00.151Z,2.55
2018-12-15T07:24:27.593Z,2.57
2018-12-15T07:26:55.031Z,2.55
2018-12-15T07:29:22.454Z,2.56
2018-12-15T07:31:49.903Z,2.55
2018-12-15T07:34:17.361Z,2.53
2018-12-15T07:36:44.897Z,2.54
2018-12-15T07:39:12.336Z,2.57
2018-12-15T07:41:39.927Z,2.59
2018-12-15T07:44:07.389Z,2.60
2018-12-15T07:46:34.851Z,2.57
2018-12-15T07:49:02.290Z,2.58
2018-12-15T07:51:29.710Z,2.60
2018-12-15T07:53:57.145Z,2.59
2018-12-15T07:56:26.268Z,2.60
2018-12-15T07:58:53.706Z,2.61
2018-12-15T08:01:21.232Z,2.64
2018-12-15T08:03:48.693Z,2.68
2018-12-15T08:06:16.232Z,2.68
2018-12-15T08:08:43.696Z,2.68
2018-12-15T08:14:26.244Z,2.72
2018-12-15T08:16:53.784Z,2.71
2018-12-15T08:19:21.246Z,2.72
2018-12-15T08:21:48.710Z,2.70
2018-12-15T08:24:16.233Z,2.69
2018-12-15T08:26:43.844Z,2.64
2018-12-15T08:29:11.283Z,2.66
2018-12-15T08:31:38.719Z,2.68
2018-12-15T08:34:06.207Z,2.72
2018-12-15T08:36:33.625Z,2.75
2018-12-15T08:39:01.045Z,2.76
2018-12-15T08:41:28.474Z,2.73
2018-12-15T08:43:55.918Z,2.73
2018-12-15T08:46:23.353Z,2.75
2018-12-15T08:48:50.922Z,2.75
2018-12-15T08:51:18.429Z,2.78
2018-12-15T08:53:45.864Z,2.80
2018-12-15T08:56:13.282Z,2.84
2018-12-15T08:58:40.794Z,2.88
2018-12-15T09:01:08.225Z,2.90
2018-12-15T09:03:35.646Z,2.89
2018-12-15T09:06:03.143Z,2.91
2018-12-15T09:08:30.692Z,2.92
2018-12-15T09:10:58.145Z,2.94
2018-12-15T09:13:25.594Z,2.97
2018-12-15T09:15:53.020Z,2.97
2018-12-15T09:18:20.441Z,2.98
2018-12-15T09:20:47.976Z,2.98
2018-12-15T09:23:15.429Z,2.99
2018-12-15T09:25:42.891Z,3.00
2018-12-15T09:28:10.330Z,3.00
2018-12-15T09:30:37.745Z,3.01
2018-12-15T09:33:05.169Z,2.95
2018-12-15T09:35:32.606Z,2.92
2018-12-15T09:38:00.044Z,2.95
2018-12-15T09:40:27.500Z,3.00
2018-12-15T09:42:54.925Z,2.95
2018-12-15T09:45:22.399Z,2.98
2018-12-15T09:47:49.818Z,2.98
2018-12-15T09:50:17.311Z,2.98
2018-12-15T09:52:44.805Z,2.91
2018-12-15T09:55:12.294Z,2.92
2018-12-15T09:57:39.731Z,2.93
2018-12-15T10:00:07.468Z,2.94
2018-12-15T10:02:34.937Z,2.99
2018-12-15T10:05:02.507Z,3.01
2018-12-15T10:07:30.042Z,3.03
2018-12-15T10:09:57.481Z,3.00
2018-12-15T10:12:24.938Z,2.97
2018-12-15T10:14:52.361Z,2.99
2018-12-15T10:17:19.786Z,3.05
2018-12-15T10:19:47.245Z,3.13
2018-12-15T10:22:14.666Z,3.15
2018-12-15T10:24:42.119Z,3.12
2018-12-15T10:27:09.535Z,3.04
2018-12-15T10:29:42.580Z,3.03
2018-12-15T10:32:15.642Z,3.07
2018-12-15T10:34:43.160Z,3.13
2018-12-15T10:37:10.640Z,3.14
2018-12-15T10:39:38.137Z,3.14
2018-12-15T10:42:05.617Z,3.13
2018-12-15T10:44:33.088Z,3.17
2018-12-15T10:47:00.519Z,3.19
2018-12-15T10:49:30.654Z,3.19
2018-12-15T10:51:57.515Z,3.12
2018-12-15T10:54:24.958Z,3.11
2018-12-15T10:56:52.408Z,3.14
2018-12-15T10:59:19.851Z,3.17
2018-12-15T11:01:47.320Z,3.19
2018-12-15T11:04:14.804Z,3.14
2018-12-15T11:06:42.232Z,3.09
2018-12-15T11:09:09.694Z,3.08
2018-12-15T11:11:37.171Z,3.03
2018-12-15T11:14:04.643Z,3.05
2018-12-15T11:16:32.091Z,3.06
2018-12-15T11:18:59.501Z,3.15
2018-12-15T11:21:26.992Z,3.17
2018-12-15T11:23:54.423Z,3.19
2018-12-15T11:26:21.908Z,3.22
2018-12-15T11:28:49.363Z,3.21
2018-12-15T11:31:16.801Z,3.22
2018-12-15T11:33:44.280Z,3.28
2018-12-15T11:36:11.701Z,3.30
2018-12-15T11:38:39.195Z,3.28
2018-12-15T11:41:06.642Z,3.26
2018-12-15T11:43:34.111Z,3.23
2018-12-15T11:46:01.549Z,3.17
2018-12-15T11:48:29.028Z,3.21
2018-12-15T11:50:56.469Z,3.25
2018-12-15T11:53:23.915Z,3.24
2018-12-15T11:55:51.398Z,3.27
2018-12-15T11:58:18.821Z,3.31
2018-12-15T12:00:46.246Z,3.22
2018-12-15T12:03:13.672Z,3.14
2018-12-15T12:05:41.108Z,3.09
2018-12-15T12:08:08.667Z,3.18
2018-12-15T12:10:36.103Z,3.18
2018-12-15T12:13:03.532Z,3.22
2018-12-15T12:15:31.085Z,3.27
2018-12-15T12:17:58.583Z,3.34
2018-12-15T12:20:26.063Z,3.36
2018-12-15T12:22:53.553Z,3.36
2018-12-15T12:25:20.984Z,3.30
2018-12-15T12:27:48.415Z,3.33
2018-12-15T12:30:15.986Z,3.32
2018-12-15T12:32:43.431Z,3.28
2018-12-15T12:35:11.019Z,3.19
2018-12-15T12:37:38.495Z,3.20
2018-12-15T12:40:06.001Z,3.23
2018-12-15T12:42:33.485Z,3.26
2018-12-15T12:45:00.939Z,3.14
2018-12-15T12:47:28.656Z,3.10
2018-12-15T12:49:56.933Z,3.06
2018-12-15T12:52:24.727Z,3.06
2018-12-15T12:54:52.207Z,3.13
2018-12-15T12:57:19.728Z,3.20
2018-12-15T12:59:47.216Z,3.25
2018-12-15T13:02:14.678Z,3.28
2018-12-15T13:04:42.120Z,3.30
2018-12-15T13:07:09.538Z,3.35
2018-12-15T13:09:37.013Z,3.37
2018-12-15T13:12:04.488Z,3.40
2018-12-15T13:14:31.941Z,3.38
2018-12-15T13:16:59.419Z,3.36
2018-12-15T13:19:26.908Z,3.34
2018-12-15T13:21:54.437Z,3.35
2018-12-15T13:24:22.338Z,3.36
2018-12-15T13:26:49.855Z,3.33
2018-12-15T13:29:17.324Z,3.26
2018-12-15T13:31:44.763Z,3.19
2018-12-15T13:34:12.188Z,3.21
2018-12-15T13:36:39.663Z,3.22
2018-12-15T13:39:07.241Z,3.22
2018-12-15T13:41:34.813Z,3.18
2018-12-15T13:44:02.241Z,3.20
2018-12-15T13:46:29.873Z,3.23
2018-12-15T13:48:57.378Z,3.20
2018-12-15T13:51:24.823Z,3.20
2018-12-15T13:53:52.307Z,3.20
2018-12-15T13:56:19.743Z,3.20
2018-12-15T13:58:47.409Z,3.22
2018-12-15T14:01:14.853Z,3.17
2018-12-15T14:03:42.284Z,3.15
2018-12-15T14:06:09.729Z,3.11
2018-12-15T14:08:37.160Z,3.06
2018-12-15T14:11:04.708Z,3.04
2018-12-15T14:13:32.157Z,3.05
2018-12-15T14:15:59.567Z,3.04
2018-12-15T14:18:27.048Z,2.95
2018-12-15T14:20:54.479Z,2.93
2018-12-15T14:23:21.978Z,2.92
2018-12-15T14:25:49.644Z,2.84
2018-12-15T14:28:17.112Z,2.81
2018-12-15T14:30:44.564Z,2.78
2018-12-15T14:33:12.020Z,2.82
2018-12-15T14:35:39.473Z,2.86
2018-12-15T14:38:06.883Z,2.81
2018-12-15T14:40:34.327Z,2.73
2018-12-15T14:43:01.845Z,2.70
2018-12-15T14:45:29.385Z,2.70
2018-12-15T14:47:56.865Z,2.73
2018-12-15T14:50:24.337Z,2.73
2018-12-15T14:52:51.773Z,2.75
2018-12-15T14:55:19.227Z,2.76
2018-12-15T14:57:46.675Z,2.78
2018-12-15T15:00:14.399Z,2.77
2018-12-15T15:02:41.911Z,2.76
2018-12-15T15:05:09.471Z,2.79
2018-12-15T15:07:36.913Z,2.75
2018-12-15T15:10:05.628Z,2.73
2018-12-15T15:12:33.057Z,2.72
2018-12-15T15:15:00.506Z,2.69
2018-12-15T15:17:27.932Z,2.62
2018-12-15T15:19:55.667Z,2.48
2018-12-15T15:22:23.097Z,2.42
2018-12-15T15:24:50.527Z,2.43
2018-12-15T15:27:17.975Z,2.49
2018-12-15T15:29:45.408Z,2.52
2018-12-15T15:32:12.918Z,2.54
2018-12-15T15:34:40.444Z,2.55
2018-12-15T15:37:07.954Z,2.58
2018-12-15T15:39:35.416Z,2.58
2018-12-15T15:42:02.865Z,2.63
2018-12-15T15:44:30.304Z,2.62
2018-12-15T15:46:57.762Z,2.58
2018-12-15T15:49:25.232Z,2.57
2018-12-15T15:51:52.687Z,2.60
2018-12-15T15:54:20.116Z,2.61
2018-12-15T15:56:47.590Z,2.63
2018-12-15T15:59:15.016Z,2.66
2018-12-15T16:01:42.501Z,2.66
2018-12-15T16:04:09.917Z,2.65
2018-12-15T16:06:37.358Z,2.63
2018-12-15T16:09:07.463Z,2.65
2018-12-15T16:11:34.903Z,2.60
2018-12-15T16:14:02.342Z,2.52
2018-12-15T16:16:32.584Z,2.50
2018-12-15T16:19:00.129Z,2.51
2018-12-15T16:21:27.697Z,2.51
2018-12-15T16:23:55.143Z,2.41
2018-12-15T16:26:22.560Z,2.43
2018-12-15T16:28:50.102Z,2.45
2018-12-15T16:31:17.582Z,2.43
2018-12-15T16:33:45.007Z,2.43
2018-12-15T16:36:12.462Z,2.43
2018-12-15T16:38:39.895Z,2.43
2018-12-15T16:41:07.331Z,2.42
2018-12-15T16:43:34.805Z,2.42
2018-12-15T16:46:02.244Z,2.38
2018-12-15T16:48:29.692Z,2.35
2018-12-15T16:50:57.187Z,2.18
2018-12-15T16:53:24.765Z,2.06
2018-12-15T16:55:52.169Z,2.01
2018-12-15T16:58:19.607Z,2.01
2018-12-15T17:00:47.116Z,2.01
2018-12-15T17:03:14.687Z,1.99
2018-12-15T17:05:42.246Z,2.00
2018-12-15T17:08:09.661Z,1.87
2018-12-15T17:10:37.103Z,1.81
2018-12-15T17:13:04.666Z,1.73
2018-12-15T17:15:32.088Z,1.70
2018-12-15T17:17:59.528Z,1.68
2018-12-15T17:20:26.971Z,1.62
2018-12-15T17:22:54.432Z,1.63
2018-12-15T17:25:21.857Z,1.62
2018-12-15T17:27:49.344Z,1.57
2018-12-15T17:30:16.802Z,1.53
2018-12-15T17:32:44.274Z,1.49
2018-12-15T17:35:11.775Z,1.49
2018-12-15T17:37:39.249Z,1.45
2018-12-15T17:40:07.681Z,1.38
2018-12-15T17:42:35.101Z,1.30
2018-12-15T17:45:02.672Z,1.29
2018-12-15T17:47:30.128Z,1.25
2018-12-15T17:49:57.551Z,1.23
2018-12-15T17:52:25.319Z,1.22
2018-12-15T17:54:52.920Z,1.17
2018-12-15T17:57:20.358Z,1.15
2018-12-15T17:59:47.809Z,1.10
2018-12-15T18:02:15.248Z,1.10
2018-12-15T18:04:42.657Z,1.09
2018-12-15T18:07:10.110Z,1.06
2018-12-15T18:09:37.552Z,1.05
2018-12-15T18:12:05.011Z,1.03
2018-12-15T18:14:32.479Z,1.01
2018-12-15T18:16:59.908Z,0.99
2018-12-15T18:19:27.669Z,0.98
2018-12-15T18:21:55.112Z,0.94
2018-12-15T18:24:22.618Z,0.91
2018-12-15T18:26:50.056Z,0.88
2018-12-15T18:29:17.508Z,0.85
2018-12-15T18:31:44.965Z,0.81
2018-12-15T18:34:12.435Z,0.78
2018-12-15T18:36:39.863Z,0.76
2018-12-15T18:39:07.662Z,0.74
2018-12-15T18:41:35.139Z,0.69
2018-12-15T18:44:02.639Z,0.69
2018-12-15T18:46:30.070Z,0.68
2018-12-15T18:48:57.585Z,0.64
2018-12-15T18:51:25.324Z,0.63
2018-12-15T18:53:52.876Z,0.59
2018-12-15T18:56:20.356Z,0.54
2018-12-15T18:58:47.820Z,0.53
2018-12-15T19:01:15.297Z,0.50
2018-12-15T19:03:42.736Z,0.49
2018-12-15T19:06:10.293Z,0.45
2018-12-15T19:08:37.733Z,0.42
2018-12-15T19:11:05.213Z,0.40
2018-12-15T19:13:32.656Z,0.34
2018-12-15T19:16:00.101Z,0.32
2018-12-15T19:18:27.571Z,0.29
2018-12-15T19:20:54.980Z,0.23
2018-12-15T19:23:22.454Z,0.16
2018-12-15T19:25:49.936Z,0.18
2018-12-15T19:28:17.364Z,0.16
2018-12-15T19:30:44.867Z,0.14
2018-12-15T19:33:12.289Z,0.18
2018-12-15T19:35:39.718Z,0.16
2018-12-15T19:38:07.144Z,0.14
2018-12-15T19:40:34.705Z,0.11
2018-12-15T19:43:02.201Z,0.10
2018-12-15T19:45:29.705Z,0.10
2018-12-15T19:47:57.163Z,0.13
2018-12-15T19:50:24.623Z,0.13
2018-12-15T19:52:52.067Z,0.10
2018-12-15T19:55:19.540Z,0.05
2018-12-15T19:57:47.002Z,0.08
2018-12-15T20:00:14.472Z,0.10
2018-12-15T20:02:41.879Z,0.10
2018-12-15T20:05:09.360Z,0.10
2018-12-15T20:07:36.791Z,0.08
2018-12-15T20:10:05.134Z,0.07
2018-12-15T20:12:32.605Z,0.08
2018-12-15T20:15:00.114Z,0.06
2018-12-15T20:17:28.239Z,0.03
2018-12-15T20:19:55.743Z,0.03
2018-12-15T20:22:23.181Z,0.00
2018-12-15T20:24:50.661Z,0.01
2018-12-15T20:27:18.095Z,-0.01
2018-12-15T20:29:45.528Z,0.01
2018-12-15T20:32:12.933Z,0.02
2018-12-15T20:34:40.377Z,0.01
2018-12-15T20:37:07.931Z,-0.02
2018-12-15T20:39:35.394Z,-0.05
2018-12-15T20:42:02.870Z,-0.03
2018-12-15T20:44:30.609Z,-0.05
2018-12-15T20:46:58.083Z,-0.08
2018-12-15T20:49:25.505Z,-0.12
2018-12-15T20:51:52.965Z,-0.15
2018-12-15T20:54:20.544Z,-0.17
2018-12-15T20:56:48.009Z,-0.15
2018-12-15T20:59:15.467Z,-0.16
2018-12-15T21:01:42.883Z,-0.15
2018-12-15T21:04:10.383Z,-0.15
2018-12-15T21:06:37.819Z,-0.19
2018-12-15T21:09:06.535Z,-0.19
2018-12-15T21:11:33.949Z,-0.16
2018-12-15T21:14:01.536Z,-0.19
2018-12-15T21:16:28.996Z,-0.20
2018-12-15T21:18:56.452Z,-0.23
2018-12-15T21:21:23.886Z,-0.22
2018-12-15T21:23:51.405Z,-0.23
2018-12-15T21:26:18.844Z,-0.23
2018-12-15T21:28:46.375Z,-0.26
2018-12-15T21:31:13.880Z,-0.28
2018-12-15T21:33:41.408Z,-0.36
2018-12-15T21:36:08.955Z,-0.38
2018-12-15T21:38:36.429Z,-0.38
2018-12-15T21:41:03.915Z,-0.37
2018-12-15T21:43:31.431Z,-0.33
2018-12-15T21:45:58.880Z,-0.35
2018-12-15T21:48:26.449Z,-0.38
2018-12-15T21:50:53.911Z,-0.38
2018-12-15T21:53:21.333Z,-0.38
2018-12-15T21:55:48.831Z,-0.38
2018-12-15T21:58:16.259Z,-0.37
2018-12-15T22:00:43.726Z,-0.35
2018-12-15T22:03:11.249Z,-0.40
2018-12-15T22:05:38.705Z,-0.38
2018-12-15T22:08:06.137Z,-0.36
2018-12-15T22:10:33.650Z,-0.36
2018-12-15T22:13:01.123Z,-0.34
2018-12-15T22:15:28.589Z,-0.35
2018-12-15T22:17:56.029Z,-0.35
2018-12-15T22:20:23.801Z,-0.33
2018-12-15T22:22:51.261Z,-0.29
2018-12-15T22:25:18.781Z,-0.28
2018-12-15T22:27:46.205Z,-0.28
2018-12-15T22:30:13.798Z,-0.30
2018-12-15T22:32:41.273Z,-0.32
2018-12-15T22:35:08.836Z,-0.32
2018-12-15T22:37:36.268Z,-0.33
2018-12-15T22:40:04.594Z,-0.34
2018-12-15T22:42:32.025Z,-0.33
2018-12-15T22:44:59.463Z,-0.35
2018-12-15T22:47:26.946Z,-0.37
2018-12-15T22:49:54.398Z,-0.36
2018-12-15T22:52:21.982Z,-0.36
2018-12-15T22:54:49.394Z,-0.41
2018-12-15T22:57:16.813Z,-0.49
2018-12-15T22:59:44.274Z,-0.56
2018-12-15T23:02:11.785Z,-0.55
2018-12-15T23:04:39.235Z,-0.64
2018-12-15T23:07:06.931Z,-0.69
2018-12-15T23:09:34.476Z,-0.76
2018-12-15T23:12:01.999Z,-0.80
2018-12-15T23:14:29.497Z,-0.79
2018-12-15T23:16:56.966Z,-0.72
2018-12-15T23:19:24.420Z,-0.63
2018-12-15T23:21:51.973Z,-0.55
2018-12-15T23:24:19.390Z,-0.51
2018-12-15T23:26:46.996Z,-0.56
2018-12-15T23:29:14.431Z,-0.51
2018-12-15T23:31:41.893Z,-0.43
2018-12-15T23:34:09.321Z,-0.44
2018-12-15T23:36:36.809Z,-0.41
2018-12-15T23:39:06.081Z,-0.39
2018-12-15T23:41:33.575Z,-0.31
2018-12-15T23:44:01.269Z,-0.23
2018-12-15T23:46:28.701Z,-0.21
2018-12-15T23:48:56.113Z,-0.20
2018-12-15T23:51:23.544Z,-0.19
2018-12-15T23:53:51.043Z,-0.11
2018-12-15T23:56:18.468Z,-0.11
2018-12-15T23:58:45.915Z,-0.07
